createdAt,value
2019-04-26T00:00:11.967Z,74.6914
2019-04-26T00:01:15.995Z,74.8699
2019-04-26T00:02:19.355Z,74.6090
2019-04-26T00:03:22.295Z,74.7509
2019-04-26T00:04:25.378Z,74.6334
2019-04-26T00:05:34.408Z,74.6548
2019-04-26T00:06:36.310Z,74.6227
2019-04-26T00:07:39.317Z,74.5235
2019-04-26T00:08:42.281Z,74.7784
2019-04-26T00:09:45.301Z,74.8302
2019-04-26T00:10:48.307Z,74.9447
2019-04-26T00:11:51.334Z,75.0103
2019-04-26T00:12:54.282Z,75.2621
2019-04-26T00:13:57.291Z,75.3216
2019-04-26T00:15:00.282Z,75.4437
2019-04-26T00:16:03.372Z,75.6466
2019-04-26T00:17:06.344Z,75.3628
2019-04-26T00:18:10.222Z,75.4253
2019-04-26T00:19:14.328Z,75.6588
2019-04-26T00:20:17.292Z,75.7137
2019-04-26T00:21:20.351Z,75.7473
2019-04-26T00:22:23.294Z,75.7610
2019-04-26T00:23:26.303Z,75.7595
2019-04-26T00:24:29.268Z,75.9655
2019-04-26T00:25:32.295Z,76.0540
2019-04-26T00:26:34.341Z,76.1456
2019-04-26T00:27:37.306Z,75.6954
2019-04-26T00:28:40.324Z,75.7366
2019-04-26T00:29:43.316Z,75.3765
2019-04-26T00:30:46.358Z,75.3567
2019-04-26T00:31:49.332Z,75.1934
2019-04-26T00:32:52.297Z,75.6222
2019-04-26T00:33:54.291Z,75.1110
2019-04-26T00:34:57.281Z,75.0866
2019-04-26T00:36:00.344Z,74.8577
2019-04-26T00:37:03.305Z,75.0103
2019-04-26T00:38:06.335Z,75.1003
2019-04-26T00:39:09.262Z,74.8577
2019-04-26T00:40:13.239Z,74.7295
2019-04-26T00:41:18.407Z,74.6456
2019-04-26T00:42:21.363Z,74.6365
2019-04-26T00:43:24.300Z,74.7372
2019-04-26T00:44:27.318Z,74.6914
2019-04-26T00:45:30.284Z,74.7143
2019-04-26T00:46:33.306Z,74.7570
2019-04-26T00:47:36.339Z,74.8196
2019-04-26T00:48:39.287Z,74.6136
2019-04-26T00:49:43.751Z,74.7692
2019-04-26T00:50:47.279Z,74.5449
2019-04-26T00:51:50.306Z,74.8562
2019-04-26T00:52:53.419Z,74.5449
2019-04-26T00:53:56.280Z,74.6319
2019-04-26T00:54:59.294Z,74.7967
2019-04-26T00:56:02.282Z,74.4625
2019-04-26T00:57:05.335Z,74.7204
2019-04-26T00:58:08.309Z,74.7967
2019-04-26T00:59:11.311Z,74.5541
2019-04-26T01:00:15.391Z,74.7295
2019-04-26T01:01:19.327Z,74.9630
2019-04-26T01:02:22.765Z,75.1980
2019-04-26T01:03:26.334Z,74.7158
2019-04-26T01:04:29.333Z,74.7005
2019-04-26T01:05:32.272Z,74.9950
2019-04-26T01:06:35.333Z,75.0866
2019-04-26T01:07:38.351Z,75.1156
2019-04-26T01:08:41.333Z,75.1003
2019-04-26T01:09:44.313Z,75.4345
2019-04-26T01:10:47.318Z,75.7275
2019-04-26T01:11:50.295Z,76.0220
2019-04-26T01:12:53.339Z,77.0550
2019-04-26T01:13:56.275Z,77.4304
2019-04-26T01:14:59.326Z,78.1170
2019-04-26T01:16:02.277Z,77.9202
2019-04-26T01:17:05.295Z,78.5809
2019-04-26T01:18:08.342Z,78.9700
2019-04-26T01:19:11.290Z,79.6231
2019-04-26T01:20:14.353Z,80.3800
2019-04-26T01:21:18.434Z,81.4359
2019-04-26T01:22:21.317Z,82.3621
2019-04-26T01:23:25.090Z,82.9145
2019-04-26T01:24:28.335Z,83.5004
2019-04-26T01:25:31.286Z,82.8016
2019-04-26T01:26:34.270Z,84.4480
2019-04-26T01:27:37.305Z,83.9460
2019-04-26T01:28:40.291Z,84.4862
2019-04-26T01:29:43.323Z,84.9805
2019-04-26T01:30:46.292Z,85.6428
2019-04-26T01:31:49.294Z,86.6468
2019-04-26T01:32:52.334Z,86.2943
2019-04-26T01:33:55.290Z,86.8421
2019-04-26T01:34:58.318Z,86.0838
2019-04-26T01:36:12.105Z,87.6982
2019-04-26T01:37:08.285Z,87.1824
2019-04-26T01:38:11.329Z,87.7043
2019-04-26T01:39:14.286Z,87.4846
2019-04-26T01:40:17.310Z,87.7043
2019-04-26T01:41:21.289Z,87.4891
2019-04-26T01:42:26.313Z,86.9749
2019-04-26T01:43:29.329Z,88.3436
2019-04-26T01:44:34.304Z,87.8187
2019-04-26T01:45:37.303Z,87.6616
2019-04-26T01:46:40.297Z,86.6743
2019-04-26T01:47:42.274Z,86.9627
2019-04-26T01:48:45.337Z,87.7760
2019-04-26T01:49:48.272Z,87.8996
2019-04-26T01:50:51.305Z,87.1580
2019-04-26T01:51:54.295Z,87.7455
2019-04-26T01:52:57.306Z,87.4067
2019-04-26T01:54:00.308Z,87.4464
2019-04-26T01:55:03.312Z,86.6545
2019-04-26T01:56:06.284Z,87.3549
2019-04-26T01:57:09.300Z,87.1229
2019-04-26T01:58:12.307Z,86.7704
2019-04-26T01:59:15.324Z,87.3915
2019-04-26T02:00:18.336Z,87.2053
2019-04-26T02:01:22.321Z,87.3014
2019-04-26T02:02:26.314Z,87.8584
2019-04-26T02:03:29.847Z,87.8691
2019-04-26T02:04:33.347Z,88.3543
2019-04-26T02:05:36.266Z,88.3803
2019-04-26T02:06:39.302Z,87.8447
2019-04-26T02:07:42.306Z,88.3253
2019-04-26T02:08:45.346Z,87.9316
2019-04-26T02:09:48.333Z,89.1814
2019-04-26T02:10:51.344Z,87.9606
2019-04-26T02:11:54.322Z,87.7485
2019-04-26T02:12:57.293Z,87.9011
2019-04-26T02:14:00.311Z,88.2994
2019-04-26T02:15:03.318Z,88.8487
2019-04-26T02:16:06.306Z,88.5466
2019-04-26T02:17:09.290Z,89.0898
2019-04-26T02:18:12.282Z,89.2271
2019-04-26T02:19:15.307Z,88.8487
2019-04-26T02:20:18.355Z,88.8624
2019-04-26T02:21:21.281Z,88.5817
2019-04-26T02:22:24.493Z,89.4118
2019-04-26T02:23:27.922Z,88.9036
2019-04-26T02:24:32.163Z,89.2866
2019-04-26T02:25:35.301Z,89.4255
2019-04-26T02:26:38.289Z,88.7373
2019-04-26T02:27:41.327Z,89.1142
2019-04-26T02:28:44.278Z,88.7373
2019-04-26T02:29:47.361Z,88.3482
2019-04-26T02:30:50.305Z,87.9515
2019-04-26T02:31:53.432Z,88.9036
2019-04-26T02:32:56.337Z,88.8258
2019-04-26T02:33:59.303Z,87.9316
2019-04-26T02:35:02.360Z,87.8508
2019-04-26T02:36:05.293Z,88.4092
2019-04-26T02:37:08.317Z,88.6183
2019-04-26T02:38:11.349Z,88.3162
2019-04-26T02:39:14.291Z,89.3065
2019-04-26T02:40:17.439Z,89.5247
2019-04-26T02:41:20.286Z,89.5384
2019-04-26T02:42:23.316Z,89.7261
2019-04-26T02:43:28.094Z,88.6381
2019-04-26T02:44:34.481Z,88.2307
2019-04-26T02:45:38.314Z,88.4123
2019-04-26T02:46:41.286Z,88.3665
2019-04-26T02:47:44.311Z,88.3635
2019-04-26T02:48:47.308Z,87.9133
2019-04-26T02:49:50.338Z,87.9133
2019-04-26T02:50:53.384Z,87.8874
2019-04-26T02:51:56.356Z,88.3207
2019-04-26T02:52:59.271Z,88.3024
2019-04-26T02:54:02.364Z,88.4398
2019-04-26T02:55:05.301Z,88.8899
2019-04-26T02:56:08.371Z,89.2500
2019-04-26T02:57:11.295Z,89.2103
2019-04-26T02:58:14.310Z,88.4901
2019-04-26T02:59:16.315Z,89.1768
2019-04-26T03:00:19.291Z,89.0166
2019-04-26T03:01:22.333Z,88.9906
2019-04-26T03:02:25.311Z,89.1493
2019-04-26T03:03:29.837Z,89.4347
2019-04-26T03:04:34.625Z,89.3462
2019-04-26T03:05:39.685Z,89.3751
2019-04-26T03:06:43.318Z,89.2958
2019-04-26T03:07:46.288Z,89.3294
2019-04-26T03:08:49.332Z,89.3477
2019-04-26T03:09:52.309Z,88.9799
2019-04-26T03:10:54.312Z,89.3111
2019-04-26T03:11:57.325Z,89.8360
2019-04-26T03:13:00.323Z,89.8085
2019-04-26T03:14:03.294Z,89.7353
2019-04-26T03:15:13.715Z,89.7917
2019-04-26T03:16:14.305Z,89.7032
2019-04-26T03:17:17.341Z,89.6864
2019-04-26T03:18:20.337Z,90.1625
2019-04-26T03:19:23.301Z,90.5089
2019-04-26T03:20:26.307Z,90.8354
2019-04-26T03:21:31.979Z,91.6457
2019-04-26T03:22:36.670Z,91.5267
2019-04-26T03:23:52.828Z,91.0033
2019-04-26T03:24:48.752Z,90.5501
2019-04-26T03:25:52.313Z,90.4952
2019-04-26T03:26:55.341Z,91.2734
2019-04-26T03:27:58.305Z,91.4611
2019-04-26T03:29:01.291Z,91.7174
2019-04-26T03:30:18.663Z,92.2713
2019-04-26T03:31:12.279Z,92.7398
2019-04-26T03:32:16.583Z,92.8176
2019-04-26T03:33:20.406Z,93.3211
2019-04-26T03:34:23.289Z,93.5775
2019-04-26T03:35:26.291Z,94.1299
2019-04-26T03:36:29.329Z,94.0978
2019-04-26T03:37:34.146Z,93.9422
2019-04-26T03:38:39.681Z,94.2870
2019-04-26T03:39:44.376Z,94.1909
2019-04-26T03:40:47.305Z,94.1817
2019-04-26T03:41:50.299Z,94.0887
2019-04-26T03:42:53.297Z,94.6990
2019-04-26T03:43:56.321Z,93.6461
2019-04-26T03:44:59.380Z,93.4844
2019-04-26T03:46:02.318Z,92.4453
2019-04-26T03:47:05.291Z,93.2799
2019-04-26T03:48:08.329Z,93.6965
2019-04-26T03:49:11.274Z,93.5958
2019-04-26T03:50:14.306Z,94.1848
2019-04-26T03:51:17.313Z,94.1024
2019-04-26T03:52:20.290Z,94.2946
2019-04-26T03:53:23.356Z,94.1665
2019-04-26T03:54:26.271Z,94.3191
2019-04-26T03:55:29.319Z,94.6746
2019-04-26T03:56:32.314Z,94.1482
2019-04-26T03:57:36.909Z,94.1085
2019-04-26T03:58:41.924Z,94.9508
2019-04-26T03:59:46.320Z,95.2163
2019-04-26T04:00:49.343Z,95.4391
2019-04-26T04:01:52.298Z,95.6176
2019-04-26T04:02:55.357Z,95.3887
2019-04-26T04:03:58.267Z,95.1827
2019-04-26T04:05:01.321Z,95.3887
2019-04-26T04:06:04.281Z,95.3948
2019-04-26T04:07:07.323Z,95.9792
2019-04-26T04:08:10.334Z,96.1044
2019-04-26T04:09:13.317Z,95.8389
2019-04-26T04:10:16.288Z,96.0174
2019-04-26T04:11:19.265Z,95.9014
2019-04-26T04:12:22.410Z,96.0357
2019-04-26T04:13:25.330Z,96.2737
2019-04-26T04:14:28.376Z,95.8068
2019-04-26T04:15:31.328Z,95.9258
2019-04-26T04:16:34.325Z,95.9442
2019-04-26T04:17:39.010Z,95.9762
2019-04-26T04:18:45.435Z,96.3867
2019-04-26T04:19:48.297Z,96.5881
2019-04-26T04:20:51.340Z,96.7315
2019-04-26T04:21:54.372Z,96.9131
2019-04-26T04:22:57.280Z,96.3134
2019-04-26T04:24:00.392Z,96.6110
2019-04-26T04:25:02.323Z,96.4889
2019-04-26T04:26:05.299Z,96.6476
2019-04-26T04:27:08.320Z,96.9238
2019-04-26T04:28:11.312Z,97.1435
2019-04-26T04:29:14.366Z,97.1145
2019-04-26T04:30:17.349Z,97.1847
2019-04-26T04:31:20.328Z,97.0550
2019-04-26T04:32:25.330Z,96.9863
2019-04-26T04:33:28.306Z,97.1283
2019-04-26T04:34:31.295Z,97.1847
2019-04-26T04:35:34.309Z,97.0642
2019-04-26T04:36:37.291Z,97.2519
2019-04-26T04:37:54.533Z,97.1740
2019-04-26T04:38:49.529Z,97.2580
2019-04-26T04:39:53.484Z,97.2839
2019-04-26T04:40:56.349Z,97.3571
2019-04-26T04:41:59.288Z,97.4166
2019-04-26T04:43:02.468Z,97.1740
2019-04-26T04:44:05.360Z,97.3724
2019-04-26T04:45:08.318Z,97.2107
2019-04-26T04:46:11.364Z,97.4899
2019-04-26T04:47:23.792Z,97.5036
2019-04-26T04:48:22.314Z,97.4716
2019-04-26T04:49:25.350Z,97.5463
2019-04-26T04:50:27.301Z,97.5280
2019-04-26T04:51:30.341Z,97.5097
2019-04-26T04:52:33.323Z,97.4166
2019-04-26T04:53:36.300Z,96.4782
2019-04-26T04:54:39.354Z,96.3149
2019-04-26T04:55:43.510Z,96.1395
2019-04-26T04:56:47.854Z,96.9146
2019-04-26T04:57:50.394Z,96.5667
2019-04-26T04:58:53.329Z,96.2127
2019-04-26T04:59:56.373Z,95.9808
2019-04-26T05:00:59.308Z,95.9747
2019-04-26T05:02:02.338Z,96.0677
2019-04-26T05:03:05.280Z,96.3424
2019-04-26T05:04:08.301Z,96.9787
2019-04-26T05:05:11.319Z,97.1252
2019-04-26T05:06:14.320Z,97.0153
2019-04-26T05:07:17.345Z,96.3012
2019-04-26T05:08:20.310Z,96.1944
2019-04-26T05:09:23.263Z,95.8831
2019-04-26T05:10:26.330Z,96.0021
2019-04-26T05:11:29.269Z,96.6796
2019-04-26T05:12:32.315Z,96.8673
2019-04-26T05:13:35.296Z,97.0321
2019-04-26T05:14:38.313Z,97.1328
2019-04-26T05:15:41.306Z,97.0016
2019-04-26T05:16:44.986Z,96.8078
2019-04-26T05:17:49.476Z,96.7407
2019-04-26T05:18:51.334Z,96.9467
2019-04-26T05:19:54.872Z,96.8444
2019-04-26T05:20:58.304Z,96.1028
2019-04-26T05:22:01.322Z,96.0433
2019-04-26T05:23:04.389Z,95.7320
2019-04-26T05:24:07.269Z,96.3546
2019-04-26T05:25:10.323Z,95.8938
2019-04-26T05:26:13.369Z,96.2448
2019-04-26T05:27:16.351Z,95.6558
2019-04-26T05:28:19.287Z,96.1715
2019-04-26T05:29:21.335Z,96.7483
2019-04-26T05:30:24.393Z,96.6980
2019-04-26T05:31:27.324Z,97.0184
2019-04-26T05:32:30.271Z,96.7163
2019-04-26T05:33:33.290Z,96.9543
2019-04-26T05:34:36.326Z,97.2900
2019-04-26T05:35:39.355Z,97.2992
2019-04-26T05:36:42.343Z,97.1756
2019-04-26T05:37:45.302Z,97.1283
2019-04-26T05:38:49.248Z,96.7392
2019-04-26T05:39:53.202Z,96.5927
2019-04-26T05:40:56.345Z,97.0642
2019-04-26T05:41:59.266Z,96.7544
2019-04-26T05:43:02.307Z,96.7681
2019-04-26T05:44:05.320Z,96.9467
2019-04-26T05:45:08.287Z,96.7254
2019-04-26T05:46:11.309Z,97.0092
2019-04-26T05:47:14.291Z,97.1115
2019-04-26T05:48:17.310Z,97.1832
2019-04-26T05:49:20.319Z,97.2656
2019-04-26T05:50:23.348Z,97.4441
2019-04-26T05:51:26.304Z,97.4212
2019-04-26T05:52:29.318Z,97.7005
2019-04-26T05:53:32.283Z,97.7966
2019-04-26T05:54:35.267Z,97.8256
2019-04-26T05:55:38.351Z,97.7020
2019-04-26T05:56:41.339Z,97.7752
2019-04-26T05:57:44.318Z,97.6699
2019-04-26T05:58:47.300Z,97.5631
2019-04-26T05:59:50.626Z,97.5830
2019-04-26T06:00:53.925Z,97.8759
2019-04-26T06:01:57.312Z,97.7157
2019-04-26T06:03:01.247Z,97.4990
2019-04-26T06:04:04.310Z,97.3755
2019-04-26T06:05:07.374Z,97.2122
2019-04-26T06:06:10.346Z,97.1847
2019-04-26T06:07:13.297Z,96.9543
2019-04-26T06:08:16.303Z,96.5576
2019-04-26T06:09:19.301Z,96.0067
2019-04-26T06:10:21.346Z,95.8373
2019-04-26T06:11:24.334Z,96.4233
2019-04-26T06:12:27.306Z,96.5377
2019-04-26T06:13:30.319Z,96.8215
2019-04-26T06:14:33.310Z,96.1944
2019-04-26T06:15:36.334Z,96.5621
2019-04-26T06:16:39.308Z,96.8811
2019-04-26T06:17:42.297Z,96.2264
2019-04-26T06:18:45.303Z,95.4162
2019-04-26T06:19:48.359Z,95.1980
2019-04-26T06:20:51.192Z,94.2321
2019-04-26T06:21:55.873Z,94.5052
2019-04-26T06:23:00.478Z,94.5464
2019-04-26T06:24:03.344Z,94.5251
2019-04-26T06:25:06.294Z,95.0408
2019-04-26T06:26:09.375Z,95.0866
2019-04-26T06:27:14.288Z,94.7936
2019-04-26T06:28:17.327Z,94.9416
2019-04-26T06:29:19.311Z,94.1115
2019-04-26T06:30:23.387Z,94.8180
2019-04-26T06:31:25.323Z,94.3511
2019-04-26T06:32:28.391Z,94.5891
2019-04-26T06:33:31.264Z,95.4482
2019-04-26T06:34:34.277Z,95.8251
2019-04-26T06:35:37.365Z,95.2529
2019-04-26T06:36:40.270Z,95.6191
2019-04-26T06:37:43.296Z,95.9533
2019-04-26T06:38:45.326Z,96.2737
2019-04-26T06:39:47.536Z,96.6125
2019-04-26T06:40:49.636Z,96.3043
2019-04-26T06:41:52.341Z,96.2631
2019-04-26T06:42:56.187Z,96.1715
2019-04-26T06:44:00.356Z,95.6405
2019-04-26T06:45:03.307Z,95.8205
2019-04-26T06:46:06.299Z,95.9152
2019-04-26T06:47:09.324Z,96.0540
2019-04-26T06:48:12.335Z,96.0861
2019-04-26T06:49:15.315Z,96.1089
2019-04-26T06:50:18.303Z,96.4569
2019-04-26T06:51:24.546Z,96.2768
2019-04-26T06:52:28.316Z,96.1349
2019-04-26T06:53:31.295Z,96.4965
2019-04-26T06:54:34.303Z,96.3149
2019-04-26T06:55:37.282Z,96.4385
2019-04-26T06:56:40.367Z,96.8139
2019-04-26T06:57:43.269Z,96.4431
2019-04-26T06:58:46.314Z,96.8643
2019-04-26T06:59:49.330Z,96.8505
2019-04-26T07:00:54.362Z,96.7117
2019-04-26T07:01:57.979Z,96.7086
2019-04-26T07:03:03.554Z,96.8643
2019-04-26T07:04:07.311Z,97.2442
2019-04-26T07:05:10.380Z,96.8872
2019-04-26T07:06:13.319Z,96.9360
2019-04-26T07:07:16.336Z,96.6293
2019-04-26T07:08:19.320Z,96.6354
2019-04-26T07:09:22.310Z,96.6659
2019-04-26T07:10:25.311Z,96.4965
2019-04-26T07:11:28.343Z,96.7727
2019-04-26T07:12:30.360Z,96.8032
2019-04-26T07:13:33.279Z,96.5576
2019-04-26T07:14:36.328Z,96.5942
2019-04-26T07:15:39.293Z,97.0153
2019-04-26T07:16:42.278Z,97.0687
2019-04-26T07:17:45.305Z,97.1756
2019-04-26T07:18:48.303Z,97.0886
2019-04-26T07:19:51.287Z,96.8780
2019-04-26T07:20:54.315Z,96.3104
2019-04-26T07:21:56.374Z,96.3516
2019-04-26T07:22:59.382Z,96.6201
2019-04-26T07:24:02.889Z,96.1868
2019-04-26T07:25:07.369Z,96.2921
2019-04-26T07:26:10.334Z,96.2493
2019-04-26T07:27:13.326Z,96.6995
2019-04-26T07:28:16.344Z,97.1572
2019-04-26T07:29:19.348Z,97.1923
2019-04-26T07:30:22.356Z,97.5677
2019-04-26T07:31:26.395Z,97.4624
2019-04-26T07:32:29.309Z,97.8576
2019-04-26T07:33:32.353Z,97.9751
2019-04-26T07:34:35.302Z,97.8286
2019-04-26T07:35:38.304Z,97.9492
2019-04-26T07:36:41.299Z,98.0224
2019-04-26T07:37:44.326Z,97.5540
2019-04-26T07:38:47.334Z,97.7569
2019-04-26T07:39:50.290Z,97.8607
2019-04-26T07:40:53.338Z,97.5311
2019-04-26T07:41:57.298Z,97.2107
2019-04-26T07:42:59.414Z,96.9772
2019-04-26T07:44:03.547Z,96.6491
2019-04-26T07:45:07.544Z,97.2976
2019-04-26T07:46:10.664Z,97.5463
2019-04-26T07:47:15.347Z,97.7157
2019-04-26T07:48:18.338Z,97.7279
2019-04-26T07:49:21.303Z,97.7096
2019-04-26T07:50:24.331Z,97.8119
2019-04-26T07:51:27.284Z,97.9889
2019-04-26T07:52:30.355Z,97.7508
2019-04-26T07:53:33.310Z,97.8119
2019-04-26T07:54:36.309Z,98.0575
2019-04-26T07:55:39.301Z,98.0453
2019-04-26T07:56:42.313Z,97.8286
2019-04-26T07:57:45.355Z,97.2244
2019-04-26T07:58:48.301Z,97.0840
2019-04-26T07:59:51.358Z,97.0336
2019-04-26T08:00:54.282Z,97.3083
2019-04-26T08:01:57.324Z,97.2671
2019-04-26T08:03:00.331Z,97.1191
2019-04-26T08:04:03.988Z,97.2198
2019-04-26T08:05:09.417Z,97.1420
2019-04-26T08:06:12.303Z,97.2305
2019-04-26T08:07:15.407Z,97.2198
2019-04-26T08:08:18.368Z,96.7758
2019-04-26T08:09:26.996Z,96.9696
2019-04-26T08:10:29.285Z,96.6888
2019-04-26T08:11:32.320Z,96.9192
2019-04-26T08:12:35.308Z,96.8002
2019-04-26T08:13:38.342Z,96.4523
2019-04-26T08:14:41.276Z,96.1395
2019-04-26T08:15:44.311Z,96.4279
2019-04-26T08:16:47.281Z,96.5423
2019-04-26T08:17:50.350Z,96.3043
2019-04-26T08:18:52.386Z,96.5194
2019-04-26T08:19:57.526Z,96.3561
2019-04-26T08:21:02.572Z,95.7961
2019-04-26T08:22:17.879Z,95.9289
2019-04-26T08:23:38.107Z,96.3775
2019-04-26T08:24:27.865Z,96.1318
2019-04-26T08:25:31.325Z,95.8022
2019-04-26T08:26:34.306Z,95.5856
2019-04-26T08:27:37.344Z,95.5856
2019-04-26T08:28:40.304Z,95.8694
2019-04-26T08:29:43.321Z,96.6812
2019-04-26T08:30:46.355Z,97.1145
2019-04-26T08:31:49.288Z,96.1456
2019-04-26T08:32:52.336Z,96.1639
2019-04-26T08:33:56.349Z,96.3058
2019-04-26T08:35:02.305Z,96.2127
2019-04-26T08:36:08.724Z,95.6863
2019-04-26T08:37:12.663Z,95.8389
2019-04-26T08:38:21.968Z,96.0769
2019-04-26T08:39:29.622Z,95.9976
2019-04-26T08:40:31.509Z,96.0800
2019-04-26T08:41:38.986Z,96.0662
2019-04-26T08:42:42.337Z,96.0479
2019-04-26T08:43:45.281Z,96.0754
2019-04-26T08:44:50.909Z,96.1532
2019-04-26T08:46:02.816Z,95.5596
2019-04-26T08:47:02.324Z,95.3658
2019-04-26T08:48:05.325Z,95.5123
2019-04-26T08:49:09.543Z,95.8328
2019-04-26T08:50:13.697Z,95.9167
2019-04-26T08:51:20.491Z,96.4843
2019-04-26T08:52:25.285Z,96.8811
2019-04-26T08:53:27.380Z,97.0687
2019-04-26T08:54:32.565Z,96.5148
2019-04-26T08:55:36.351Z,96.3058
2019-04-26T08:56:39.312Z,96.8948
2019-04-26T08:57:42.272Z,96.8994
2019-04-26T08:58:45.340Z,96.9009
2019-04-26T08:59:48.295Z,96.4385
2019-04-26T09:00:51.347Z,96.5347
2019-04-26T09:01:54.330Z,97.1923
2019-04-26T09:02:57.336Z,96.8460
2019-04-26T09:04:00.303Z,96.8689
2019-04-26T09:05:03.347Z,97.1801
2019-04-26T09:06:06.317Z,97.3541
2019-04-26T09:07:09.321Z,97.1481
2019-04-26T09:08:12.312Z,97.0794
2019-04-26T09:09:18.184Z,96.9085
2019-04-26T09:10:23.340Z,97.1466
2019-04-26T09:11:33.472Z,97.2656
2019-04-26T09:12:34.312Z,96.7208
2019-04-26T09:13:37.294Z,96.6903
2019-04-26T09:14:40.357Z,96.5331
2019-04-26T09:15:43.313Z,96.9909
2019-04-26T09:16:50.420Z,97.0382
2019-04-26T09:17:54.319Z,97.0550
2019-04-26T09:18:59.583Z,97.3892
2019-04-26T09:20:07.684Z,96.7346
2019-04-26T09:21:13.422Z,96.6751
2019-04-26T09:22:22.529Z,97.0413
2019-04-26T09:23:39.362Z,97.3068
2019-04-26T09:24:35.355Z,97.3541
2019-04-26T09:25:39.301Z,97.1008
2019-04-26T09:26:46.257Z,97.1344
2019-04-26T09:27:50.313Z,97.3617
2019-04-26T09:28:56.588Z,97.4411
2019-04-26T09:30:00.642Z,96.7025
2019-04-26T09:31:07.364Z,97.1008
2019-04-26T09:32:10.281Z,97.5128
2019-04-26T09:33:13.367Z,97.7371
2019-04-26T09:34:16.346Z,98.0362
2019-04-26T09:35:19.309Z,97.8622
2019-04-26T09:36:22.343Z,97.8241
2019-04-26T09:37:25.295Z,97.6471
2019-04-26T09:38:28.353Z,97.0336
2019-04-26T09:39:31.300Z,97.0367
2019-04-26T09:40:34.329Z,97.0428
2019-04-26T09:41:37.323Z,97.0871
2019-04-26T09:42:41.048Z,97.6089
2019-04-26T09:43:44.302Z,97.5448
2019-04-26T09:44:46.345Z,97.7645
2019-04-26T09:45:49.327Z,97.8210
2019-04-26T09:46:52.889Z,97.1206
2019-04-26T09:47:57.306Z,97.3205
2019-04-26T09:49:03.056Z,97.5723
2019-04-26T09:50:11.268Z,97.8073
2019-04-26T09:51:16.276Z,97.7371
2019-04-26T09:52:19.340Z,98.0301
2019-04-26T09:53:22.281Z,98.0636
2019-04-26T09:54:25.333Z,97.7615
2019-04-26T09:55:35.285Z,97.5586
2019-04-26T09:56:36.360Z,97.4578
2019-04-26T09:57:39.348Z,97.4945
2019-04-26T09:58:41.328Z,97.4228
2019-04-26T09:59:44.316Z,97.5998
2019-04-26T10:00:48.617Z,97.3678
2019-04-26T10:01:55.352Z,97.4273
2019-04-26T10:03:01.322Z,97.4624
2019-04-26T10:04:04.325Z,97.6867
2019-04-26T10:05:08.144Z,97.2900
2019-04-26T10:06:14.308Z,96.9543
2019-04-26T10:07:17.443Z,97.3953
2019-04-26T10:08:20.347Z,97.5540
2019-04-26T10:09:23.381Z,97.6089
2019-04-26T10:10:26.297Z,97.7920
2019-04-26T10:11:29.322Z,97.4990
2019-04-26T10:12:32.348Z,97.2061
2019-04-26T10:13:35.358Z,97.1511
2019-04-26T10:14:38.292Z,97.6928
2019-04-26T10:15:41.339Z,97.5051
2019-04-26T10:16:44.317Z,97.5631
2019-04-26T10:17:50.149Z,97.0687
2019-04-26T10:18:54.448Z,97.0153
2019-04-26T10:19:57.329Z,97.0794
2019-04-26T10:21:00.342Z,96.9635
2019-04-26T10:22:05.332Z,96.8948
2019-04-26T10:23:08.324Z,96.8765
2019-04-26T10:24:11.315Z,97.1099
2019-04-26T10:25:16.899Z,97.0687
2019-04-26T10:26:23.314Z,96.7269
2019-04-26T10:27:28.316Z,97.0840
2019-04-26T10:28:31.314Z,97.2519
2019-04-26T10:29:33.314Z,96.9131
2019-04-26T10:30:38.358Z,96.6796
2019-04-26T10:31:43.331Z,96.7361
2019-04-26T10:32:46.353Z,96.5393
2019-04-26T10:33:49.299Z,96.6247
2019-04-26T10:34:52.331Z,96.9604
2019-04-26T10:35:56.617Z,96.8078
2019-04-26T10:37:05.518Z,96.8872
2019-04-26T10:38:09.345Z,96.9955
2019-04-26T10:39:12.298Z,97.0520
2019-04-26T10:40:15.340Z,96.9100
2019-04-26T10:41:18.277Z,96.4340
2019-04-26T10:42:21.312Z,96.0204
2019-04-26T10:43:24.320Z,96.3104
2019-04-26T10:44:27.304Z,96.3684
2019-04-26T10:45:30.290Z,96.6857
2019-04-26T10:46:33.324Z,96.7727
2019-04-26T10:47:38.416Z,96.2402
2019-04-26T10:48:45.598Z,95.8343
2019-04-26T10:49:50.297Z,95.5962
2019-04-26T10:50:53.320Z,96.1456
2019-04-26T10:51:56.323Z,95.7000
2019-04-26T10:52:59.313Z,95.6970
2019-04-26T10:54:01.644Z,96.1440
2019-04-26T10:55:08.309Z,95.9121
2019-04-26T10:56:11.350Z,96.0494
2019-04-26T10:57:14.278Z,96.4477
2019-04-26T10:58:17.337Z,96.2005
2019-04-26T10:59:22.645Z,96.1547
2019-04-26T11:00:26.340Z,95.9991
2019-04-26T11:01:29.278Z,95.8648
2019-04-26T11:02:32.291Z,95.8297
2019-04-26T11:03:35.335Z,96.3836
2019-04-26T11:04:41.565Z,96.2310
2019-04-26T11:05:49.335Z,95.1568
2019-04-26T11:06:54.292Z,95.5489
2019-04-26T11:07:57.341Z,95.5093
2019-04-26T11:08:59.337Z,95.3750
2019-04-26T11:10:02.989Z,95.0042
2019-04-26T11:11:06.270Z,94.9859
2019-04-26T11:12:09.368Z,95.1247
2019-04-26T11:13:11.317Z,95.5093
2019-04-26T11:14:18.347Z,95.0546
2019-04-26T11:15:22.312Z,94.9676
2019-04-26T11:16:25.281Z,95.2422
2019-04-26T11:17:28.321Z,95.4452
2019-04-26T11:18:31.296Z,95.8190
2019-04-26T11:19:35.525Z,95.5047
2019-04-26T11:20:41.362Z,95.3399
2019-04-26T11:21:47.324Z,95.1293
2019-04-26T11:22:50.326Z,94.7219
2019-04-26T11:23:53.322Z,94.9722
2019-04-26T11:24:56.304Z,95.2529
2019-04-26T11:26:01.703Z,95.6878
2019-04-26T11:27:09.702Z,96.1181
2019-04-26T11:28:17.110Z,95.8114
2019-04-26T11:29:24.992Z,95.4681
2019-04-26T11:30:30.344Z,95.1476
2019-04-26T11:31:33.296Z,94.6792
2019-04-26T11:32:36.867Z,94.6700
2019-04-26T11:33:44.935Z,94.8638
2019-04-26T11:34:48.315Z,94.6990
2019-04-26T11:35:51.362Z,95.3292
2019-04-26T11:36:54.298Z,95.6146
2019-04-26T11:37:57.335Z,95.9609
2019-04-26T11:39:01.381Z,96.0266
2019-04-26T11:40:10.205Z,96.5103
2019-04-26T11:41:15.352Z,94.8714
2019-04-26T11:42:18.331Z,95.9426
2019-04-26T11:43:21.330Z,95.8373
2019-04-26T11:44:27.451Z,95.6878
2019-04-26T11:45:31.370Z,95.3384
2019-04-26T11:46:44.162Z,95.1919
2019-04-26T11:47:54.309Z,95.8602
2019-04-26T11:48:58.958Z,96.1639
2019-04-26T11:49:58.408Z,95.5001
2019-04-26T11:51:01.295Z,94.6838
2019-04-26T11:52:04.304Z,94.9004
2019-04-26T11:53:10.200Z,95.5077
2019-04-26T11:54:17.127Z,95.5398
2019-04-26T11:55:25.372Z,95.7839
2019-04-26T11:56:30.316Z,96.0021
2019-04-26T11:57:33.340Z,95.4177
2019-04-26T11:58:36.292Z,95.0271
2019-04-26T11:59:39.329Z,95.4391
2019-04-26T12:00:42.305Z,95.4070
2019-04-26T12:01:45.347Z,96.1593
2019-04-26T12:02:50.793Z,95.7061
2019-04-26T12:03:55.691Z,93.9895
2019-04-26T12:05:02.286Z,93.9208
2019-04-26T12:06:05.318Z,93.7499
2019-04-26T12:07:08.369Z,93.6324
2019-04-26T12:08:11.281Z,93.7087
2019-04-26T12:09:14.320Z,93.2555
2019-04-26T12:10:17.299Z,92.9625
2019-04-26T12:11:26.134Z,93.4798
2019-04-26T12:12:28.296Z,93.1914
2019-04-26T12:13:31.367Z,93.6355
2019-04-26T12:14:34.403Z,93.5500
2019-04-26T12:15:38.981Z,95.0591
2019-04-26T12:16:49.333Z,95.1690
2019-04-26T12:17:58.829Z,94.2092
2019-04-26T12:19:01.320Z,94.6029
2019-04-26T12:20:04.299Z,94.8211
2019-04-26T12:21:07.326Z,92.6986
2019-04-26T12:22:09.993Z,91.6365
2019-04-26T12:23:20.318Z,91.1101
2019-04-26T12:24:21.288Z,92.3323
2019-04-26T12:25:24.359Z,91.7235
2019-04-26T12:26:27.313Z,92.7855
2019-04-26T12:27:30.882Z,92.7703
2019-04-26T12:28:36.245Z,92.8939
2019-04-26T12:29:44.184Z,93.4676
2019-04-26T12:30:54.023Z,91.6442
2019-04-26T12:31:58.346Z,91.9051
2019-04-26T12:33:01.374Z,91.3329
2019-04-26T12:34:04.304Z,91.5572
2019-04-26T12:35:07.316Z,91.9341
2019-04-26T12:36:13.410Z,91.4122
2019-04-26T12:37:19.994Z,90.8797
2019-04-26T12:38:28.364Z,92.2820
2019-04-26T12:39:36.504Z,91.2230
2019-04-26T12:40:42.438Z,91.9417
2019-04-26T12:41:48.315Z,91.2429
2019-04-26T12:42:51.369Z,91.7174
2019-04-26T12:43:54.434Z,91.9188
2019-04-26T12:45:01.350Z,89.4881
2019-04-26T12:46:04.331Z,89.2225
2019-04-26T12:47:07.299Z,89.3965
2019-04-26T12:48:12.461Z,88.2994
2019-04-26T12:49:20.373Z,87.9271